CYWG/YWG METAR and TAF weather

Enter ICAO airport designator
Station Type Date Time Source
CYWG METAR 2022/06/30 00:00 UTC NOAA

CYWG 300000Z 20011KT 15SM -SHRA BKN140 BKN250 22/14 A2972 RMK AC6CI1 CVCTV CLD EMBD SLP070 DENSITY ALT 2000FT


Station Type Date Time Source
CYWG Decoded METAR 2022/06/30 00:00 UTC NOAA

Winnipeg Int. Airportman., Canada (CYWG) 49-54N 097-14W 239M
Jun 29, 2022 - 08:00 PM EDT / 2022.06.30 0000 UTC
Wind: from the SSW (200 degrees) at 13 MPH (11 KT):0
Visibility: 15 mile(s):0
Sky conditions: mostly cloudy
Weather: light rain showers
Temperature: 71 F (22 C)
Dew Point: 57 F (14 C)
Relative Humidity: 60%
Pressure (altimeter): 29.72 in. Hg (1006 hPa)
ob: CYWG 300000Z 20011KT 15SM -SHRA BKN140 BKN250 22/14 A2972 RMK AC6CI1 CVCTV CLD EMBD SLP070 DENSITY ALT 2000FT
cycle: 0

Station Type Date Time Source
CYWG TAF 2022/06/29 18:42 UTC NOAA

TAF CYWG 291741Z 2918/3018 15015G25KT P6SM BKN090 BKN130
TEMPO 2918/2921 P6SM -SHRA
FM292100 16015G25KT P6SM SCT050 SCT140 PROB30 3002/3006 VRB20G35KT 2SM TSRA BKN050CB BKN140
FM300600 19012KT P6SM FEW060
FM301000 30020G30KT P6SM BKN025
TEMPO 3010/3016 BKN020
FM301600 32018KT P6SM SCT030
RMK NXT FCST BY 300000Z

Example: see airport list